Flight Track Log - Related Links

Times and Time Zones

All times are in EDT time to prevent confusion due to time zone crossing. See the N779NC flight status page for this flight to view local times or setup timezone preferences in your user account.

Time Position Orientation Groundspeed Altitude Reporting Facility
EDT Latitude Longitude Course Direction KTS MPH feet Rate Location/Type
Thu 09:56:49 AM 34.7133 -92.2519 197° South 188 216 800  Level Memphis Center
Thu 09:58:08 AM 34.6378 -92.2806 197° South 257 296 3,100 1,714 Climbing Memphis Center
Thu 09:59:09 AM 34.6097 -92.2067 115° Southeast 270 311 4,800 1,884 Climbing Memphis Center
Thu 10:00:09 AM 34.6422 -92.1242 64° Northeast 260 299 6,900 1,973 Climbing Memphis Center
Thu 10:01:38 AM 34.6878 -92.0014 66° East 283 326 9,700 1,732 Climbing Memphis Center
Thu 10:02:38 AM 34.7017 -91.9056 80° East 283 326 11,200 1,000 Climbing Memphis Center
Thu 10:03:38 AM 34.7153 -91.7947 81° East 304 350 11,700 1,350 Climbing Memphis Center
Thu 10:04:38 AM 34.7314 -91.6611 82° East 343 395 13,900 1,950 Climbing Memphis Center
Thu 10:05:38 AM 34.7514 -91.5375 79° East 366 421 15,600 1,700 Climbing Memphis Center
Thu 10:06:38 AM 34.7775 -91.4114 76° East 377 434 17,300 1,550 Climbing Memphis Center
Thu 10:07:38 AM 34.7994 -91.2803 78° East 384 442 18,700 1,250 Climbing Memphis Center
Thu 10:08:38 AM 34.8253 -91.1617 75° East 394 453 19,800 1,200 Climbing Memphis Center
Thu 10:09:38 AM 34.8511 -91.0228 77° East 406 467 21,100 1,400 Climbing Memphis Center
Thu 10:10:38 AM 34.8853 -90.8836 73° East 416 479 22,600 1,350 Climbing Memphis Center
Thu 10:11:38 AM 34.9211 -90.7472 72° East 416 479 23,800 1,000 Climbing Memphis Center
Thu 10:12:38 AM 34.9528 -90.6003 75° East 432 497 24,600 950 Climbing Memphis Center
Thu 10:13:38 AM 34.9928 -90.4533 72° East 445 512 25,700 950 Climbing Memphis Center
Thu 10:14:38 AM 35.0344 -90.2911 73° East 445 512 26,500 800 Climbing Memphis Center
Thu 10:15:38 AM 35.0761 -90.1389 71° East 459 528 27,300 800 Climbing Memphis Center
Thu 10:16:38 AM 35.0569 -89.9917 99° East 446 513 28,100 700 Climbing Memphis Center
Thu 10:17:38 AM 35.0083 -89.8550 113° Southeast 423 487 28,700 450 Climbing Memphis Center
Thu 10:18:38 AM 34.9847 -89.7006 101° East 449 517 29,000 150 Climbing Memphis Center
Thu 10:19:38 AM 34.9714 -89.5589 97° East 467 537 29,000  Level Memphis Center
Thu 10:20:38 AM 34.9431 -89.4097 103° East 461 531 29,000  Level Memphis Center
Thu 10:21:38 AM 34.9189 -89.2606 101° East 456 525 29,000  Level Memphis Center
Thu 10:22:38 AM 34.8947 -89.1139 101° East 445 512 29,000  Level Memphis Center
Thu 10:23:38 AM 34.8408 -88.9656 114° Southeast 440 506 29,000  Level Memphis Center
Thu 10:24:38 AM 34.7811 -88.8375 120° Southeast 433 498 29,000  Level Memphis Center
Thu 10:25:38 AM 34.7208 -88.7097 120° Southeast 439 505 29,000  Level Memphis Center
Thu 10:26:38 AM 34.6544 -88.5847 123° Southeast 439 505 29,000  Level Memphis Center
Thu 10:27:38 AM 34.6047 -88.4572 115° Southeast 428 493 29,000  Level Memphis Center
Thu 10:28:38 AM 34.5525 -88.3222 115° Southeast 428 493 29,000  Level Memphis Center
Thu 10:29:38 AM 34.5022 -88.1872 114° Southeast 428 493 29,000  Level Memphis Center
Thu 10:30:38 AM 34.4453 -88.0450 116° Southeast 448 516 29,000  Level Memphis Center
Thu 10:31:38 AM 34.4014 -87.9231 114° Southeast 448 516 29,000  Level Memphis Center
Thu 10:32:38 AM 34.3506 -87.7861 114° Southeast 443 510 29,000  Level Memphis Center
Thu 10:34:54 AM 34.2089 -87.4975 121° Southeast 455 524 29,000  Level Atlanta Center
Thu 10:35:54 AM 34.1436 -87.3769 123° Southeast 440 506 29,000  Level Atlanta Center
Thu 10:36:54 AM 34.1181 -87.2356 102° East 421 484 29,000  Level Atlanta Center
Thu 10:37:54 AM 34.0842 -87.0911 106° East 427 491 29,000  Level Atlanta Center
Thu 10:38:54 AM 34.0689 -86.9403 97° East 440 506 29,000  Level Atlanta Center
Thu 10:39:54 AM 34.0600 -86.7844 94° East 451 519 29,000  Level Atlanta Center
Thu 10:40:54 AM 34.0553 -86.6239 92° East 469 540 29,000 -250 Level Atlanta Center
Thu 10:41:54 AM 34.0814 -86.4642 79° East 478 550 28,500 -600 Descending Atlanta Center
Thu 10:42:54 AM 34.1033 -86.3017 81° East 483 556 27,800 -700 Descending Atlanta Center
Thu 10:43:54 AM 34.1167 -86.1389 84° East 483 556 27,100 -750 Descending Atlanta Center
Thu 10:44:54 AM 34.1214 -85.9786 88° East 478 550 26,300 -1,000 Descending Atlanta Center
Thu 10:45:54 AM 34.1278 -85.8331 87° East 478 550 25,100 -1,900 Descending Atlanta Center
Thu 10:46:54 AM 34.1344 -85.6550 87° East 460 529 22,500 -2,350 Descending Atlanta Center
Thu 10:47:54 AM 34.1422 -85.5122 86° East 430 495 20,400 -2,350 Descending Atlanta Center
Thu 10:48:54 AM 34.1458 -85.3817 88° East 397 457 17,800 -2,400 Descending Atlanta Center
Thu 10:49:54 AM 34.1575 -85.2614 83° East 371 427 15,600 -2,150 Descending Atlanta Center
Thu 10:50:54 AM 34.1672 -85.1433 84° East 360 414 13,500 -1,350 Descending Atlanta Center
Thu 10:51:54 AM 34.1281 -85.0625 120° Southeast 311 358 12,900 -450 Descending Atlanta Center
Thu 10:52:54 AM 34.0642 -84.9867 135° Southeast 301 346 12,600 -850 Descending Atlanta Center
Thu 10:53:54 AM 34.0042 -84.9058 132° Southeast 311 358 11,200 -1,100 Descending Atlanta Center
Thu 10:54:54 AM 33.9461 -84.8375 136° Southeast 311 358 10,400 -1,350 Descending Atlanta Center
Thu 10:55:54 AM 33.8775 -84.8069 160° South 254 292 8,500 -1,837 Descending Atlanta Center
Thu 10:56:32 AM 33.8167 -84.8000 175° South 268 308 7,400 -1,398 Descending Atlanta TRACON
Thu 10:57:37 AM 33.7500 -84.8333 203° Southwest 263 303 6,100 -1,200 Descending Atlanta TRACON
Thu 10:58:32 AM 33.7167 -84.8667 220° Southwest 243 280 5,000 -574 Descending Atlanta TRACON
Thu 10:59:32 AM 33.6667 -84.8333 151° Southeast 209 241 5,000  Level Atlanta TRACON
Thu 11:00:32 AM 33.6500 -84.7667 107° East 220 253 5,000  Level Atlanta TRACON
Thu 11:01:32 AM 33.6500 -84.7000 90° East 216 249 5,000 -500 Level Atlanta TRACON
Thu 11:02:32 AM 33.6500 -84.6333 90° East 198 228 4,000 -1,000 Descending Atlanta TRACON

Login

Don't have an account? Register now (free) for customized features, flight alerts, and more!